createdAt,value
2022-09-09T00:01:28.620Z,1.30
2022-09-09T00:04:05.442Z,1.20
2022-09-09T00:06:36.440Z,1.10
2022-09-09T00:09:19.396Z,1.10
2022-09-09T00:12:27.258Z,1.45
2022-09-09T00:15:21.763Z,1.20
2022-09-09T00:17:56.325Z,1.00
2022-09-09T00:20:47.084Z,1.33
2022-09-09T00:23:21.349Z,1.50
2022-09-09T00:25:53.042Z,1.23
2022-09-09T00:28:23.572Z,1.20
2022-09-09T00:30:50.209Z,1.20
2022-09-09T00:33:23.150Z,1.10
2022-09-09T00:35:54.204Z,1.10
2022-09-09T00:38:44.310Z,1.02
2022-09-09T00:41:23.727Z,1.10
2022-09-09T00:43:58.470Z,1.10
2022-09-09T00:46:31.174Z,0.95
2022-09-09T00:49:37.122Z,0.98
2022-09-09T00:52:30.165Z,1.10
2022-09-09T00:55:30.821Z,1.17
2022-09-09T00:57:57.462Z,1.25
2022-09-09T01:00:25.871Z,1.10
2022-09-09T01:03:03.178Z,1.02
2022-09-09T01:06:08.795Z,1.10
2022-09-09T01:08:53.623Z,0.90
2022-09-09T01:11:26.766Z,1.27
2022-09-09T01:14:28.539Z,1.10
2022-09-09T01:17:00.775Z,1.20
2022-09-09T01:20:05.813Z,1.15
2022-09-09T01:22:46.225Z,1.10
2022-09-09T01:25:50.537Z,0.93
2022-09-09T01:28:23.401Z,1.00
2022-09-09T01:30:50.388Z,1.40
2022-09-09T01:33:19.055Z,1.17
2022-09-09T01:36:05.781Z,1.23
2022-09-09T01:38:33.595Z,1.17
2022-09-09T01:41:00.344Z,1.20
2022-09-09T01:43:29.026Z,1.35
2022-09-09T01:45:59.797Z,1.10
2022-09-09T01:48:28.176Z,1.10
2022-09-09T01:50:54.789Z,1.00
2022-09-09T01:53:23.087Z,1.17
2022-09-09T01:56:17.118Z,1.13
2022-09-09T01:58:58.762Z,1.17
2022-09-09T02:01:37.994Z,1.10
2022-09-09T02:04:15.405Z,1.20
2022-09-09T02:06:42.666Z,1.05
2022-09-09T02:09:13.944Z,1.58
2022-09-09T02:14:13.354Z,1.38
2022-09-09T02:16:40.022Z,1.30
2022-09-09T02:19:29.241Z,1.33
2022-09-09T02:21:58.576Z,1.40
2022-09-09T02:24:27.429Z,1.40
2022-09-09T02:26:56.670Z,1.60
2022-09-09T02:29:31.287Z,1.15
2022-09-09T02:32:02.999Z,1.50
2022-09-09T02:34:31.370Z,1.40
2022-09-09T02:37:00.746Z,1.20
2022-09-09T02:39:27.454Z,1.30
2022-09-09T02:41:54.021Z,1.60
2022-09-09T02:44:21.138Z,1.38
2022-09-09T02:47:00.111Z,1.40
2022-09-09T02:49:34.566Z,1.20
2022-09-09T02:52:08.727Z,1.50
2022-09-09T02:54:38.680Z,1.40
2022-09-09T02:57:12.451Z,1.50
2022-09-09T02:59:40.676Z,1.38
2022-09-09T03:02:07.499Z,1.40
2022-09-09T03:04:34.122Z,1.48
2022-09-09T03:07:00.945Z,1.52
2022-09-09T03:09:27.463Z,1.58
2022-09-09T03:11:55.942Z,1.60
2022-09-09T03:14:26.122Z,1.45
2022-09-09T03:16:53.919Z,1.67
2022-09-09T03:19:21.821Z,1.40
2022-09-09T03:21:48.834Z,1.55
2022-09-09T03:24:15.451Z,1.50
2022-09-09T03:26:45.600Z,1.73
2022-09-09T03:29:15.694Z,1.80
2022-09-09T03:31:43.883Z,1.90
2022-09-09T03:34:11.118Z,1.60
2022-09-09T03:36:37.886Z,1.90
2022-09-09T03:39:04.602Z,1.80
2022-09-09T03:41:32.074Z,1.88
2022-09-09T03:43:58.894Z,1.92
2022-09-09T03:46:26.939Z,2.00
2022-09-09T03:48:53.503Z,1.88
2022-09-09T03:51:20.766Z,2.08
2022-09-09T03:53:47.435Z,1.75
2022-09-09T03:56:14.139Z,1.70
2022-09-09T03:58:40.870Z,1.60
2022-09-09T04:01:11.224Z,1.75
2022-09-09T04:03:37.941Z,2.17
2022-09-09T04:06:07.853Z,1.60
2022-09-09T04:08:36.591Z,1.73
2022-09-09T04:11:07.069Z,2.10
2022-09-09T04:13:35.435Z,1.65
2022-09-09T04:16:04.506Z,2.03
2022-09-09T04:18:31.495Z,1.80
2022-09-09T04:20:58.341Z,1.80
2022-09-09T04:23:28.122Z,1.88
2022-09-09T04:25:56.238Z,1.90
2022-09-09T04:28:25.014Z,1.90
2022-09-09T04:30:53.200Z,1.88
2022-09-09T04:33:20.304Z,1.80
2022-09-09T04:35:49.522Z,2.28
2022-09-09T04:38:17.751Z,2.13
2022-09-09T04:40:48.011Z,2.15
2022-09-09T04:43:15.760Z,1.80
2022-09-09T04:45:43.548Z,1.80
2022-09-09T04:48:10.695Z,2.00
2022-09-09T04:50:37.358Z,2.78
2022-09-09T04:53:05.762Z,1.60
2022-09-09T04:55:33.038Z,2.17
2022-09-09T04:58:04.803Z,1.60
2022-09-09T05:00:31.740Z,2.33
2022-09-09T05:02:58.396Z,2.15
2022-09-09T05:05:26.412Z,2.45
2022-09-09T05:07:52.944Z,2.20
2022-09-09T05:10:19.530Z,1.65
2022-09-09T05:12:54.395Z,1.90
2022-09-09T05:15:22.072Z,2.20
2022-09-09T05:17:48.642Z,2.30
2022-09-09T05:20:17.480Z,2.70
2022-09-09T05:22:44.809Z,2.40
2022-09-09T05:25:11.455Z,2.50
2022-09-09T05:27:38.537Z,2.58
2022-09-09T05:30:05.660Z,2.72
2022-09-09T05:32:35.108Z,2.50
2022-09-09T05:35:02.503Z,2.58
2022-09-09T05:37:31.141Z,2.30
2022-09-09T05:39:58.869Z,2.50
2022-09-09T05:42:31.575Z,2.20
2022-09-09T05:44:58.402Z,2.20
2022-09-09T05:47:25.067Z,1.90
2022-09-09T05:49:51.605Z,1.98
2022-09-09T05:52:18.101Z,2.47
2022-09-09T05:54:44.814Z,2.10
2022-09-09T05:57:11.423Z,2.05
2022-09-09T05:59:38.245Z,2.10
2022-09-09T06:02:04.918Z,2.00
2022-09-09T06:04:32.229Z,2.00
2022-09-09T06:06:58.822Z,1.80
2022-09-09T06:09:25.646Z,2.88
2022-09-09T06:11:52.240Z,2.10
2022-09-09T06:14:19.082Z,2.10
2022-09-09T06:16:46.127Z,1.90
2022-09-09T06:19:13.762Z,2.08
2022-09-09T06:21:41.114Z,2.08
2022-09-09T06:24:11.075Z,1.85
2022-09-09T06:26:41.904Z,1.90
2022-09-09T06:29:08.959Z,2.10
2022-09-09T06:31:37.734Z,2.20
2022-09-09T06:34:07.694Z,2.00
2022-09-09T06:36:37.814Z,1.88
2022-09-09T06:39:05.597Z,2.30
2022-09-09T06:41:33.900Z,2.22
2022-09-09T06:44:00.515Z,2.28
2022-09-09T06:46:31.041Z,1.95
2022-09-09T06:49:00.115Z,2.42
2022-09-09T06:51:31.899Z,2.08
2022-09-09T06:54:00.919Z,2.85
2022-09-09T06:56:38.807Z,2.22
2022-09-09T06:59:08.723Z,1.92
2022-09-09T07:01:37.942Z,2.22
2022-09-09T07:04:08.418Z,1.88
2022-09-09T07:06:41.319Z,1.80
2022-09-09T07:09:10.579Z,2.03
2022-09-09T07:11:45.695Z,1.90
2022-09-09T07:14:15.253Z,1.80
2022-09-09T07:16:46.407Z,2.10
2022-09-09T07:21:41.305Z,1.90
2022-09-09T07:24:11.575Z,1.73
2022-09-09T07:26:39.977Z,2.63
2022-09-09T07:29:07.243Z,4.15
2022-09-09T07:31:37.295Z,1.60
2022-09-09T07:34:05.310Z,1.52
2022-09-09T07:36:37.717Z,2.20
2022-09-09T07:39:08.137Z,1.80
2022-09-09T07:41:39.431Z,1.70
2022-09-09T07:44:08.647Z,1.65
2022-09-09T07:46:36.386Z,1.30
2022-09-09T07:49:04.075Z,1.35
2022-09-09T07:51:34.187Z,1.23
2022-09-09T07:54:04.955Z,1.20
2022-09-09T07:56:33.551Z,1.10
2022-09-09T07:59:00.787Z,1.30
2022-09-09T08:01:33.625Z,1.15
2022-09-09T08:04:27.595Z,1.15
2022-09-09T08:06:58.089Z,1.00
2022-09-09T08:09:27.856Z,1.00
2022-09-09T08:11:54.440Z,1.00
2022-09-09T08:14:21.118Z,1.45
2022-09-09T08:16:50.162Z,1.23
2022-09-09T08:19:17.607Z,0.90
2022-09-09T08:21:45.525Z,1.20
2022-09-09T08:24:13.333Z,1.23
2022-09-09T08:26:45.458Z,1.50
2022-09-09T08:29:14.068Z,1.25
2022-09-09T08:31:41.893Z,1.30
2022-09-09T08:34:09.964Z,1.80
2022-09-09T08:36:41.698Z,1.40
2022-09-09T08:39:09.900Z,1.40
2022-09-09T08:41:50.734Z,1.30
2022-09-09T08:45:04.251Z,1.27
2022-09-09T08:48:04.102Z,1.52
2022-09-09T08:50:36.366Z,1.35
2022-09-09T08:53:31.143Z,1.42
2022-09-09T08:56:00.409Z,1.48
2022-09-09T08:58:33.463Z,1.42
2022-09-09T09:01:37.389Z,1.35
2022-09-09T09:04:12.951Z,1.60
2022-09-09T09:07:07.167Z,1.55
2022-09-09T09:09:36.991Z,1.60
2022-09-09T09:12:15.382Z,1.35
2022-09-09T09:14:45.117Z,1.23
2022-09-09T09:17:16.086Z,1.40
2022-09-09T09:19:44.168Z,1.30
2022-09-09T09:22:33.826Z,1.40
2022-09-09T09:25:18.891Z,1.70
2022-09-09T09:27:52.750Z,1.60
2022-09-09T09:30:28.953Z,1.50
2022-09-09T09:33:01.822Z,1.30
2022-09-09T09:35:28.443Z,1.23
2022-09-09T09:40:58.805Z,2.08
2022-09-09T09:43:33.678Z,1.83
2022-09-09T09:46:17.569Z,1.40
2022-09-09T09:48:46.519Z,1.60
2022-09-09T09:51:17.558Z,1.40
2022-09-09T09:53:44.747Z,1.33
2022-09-09T09:56:14.385Z,1.60
2022-09-09T09:58:47.051Z,1.63
2022-09-09T10:01:32.237Z,1.48
2022-09-09T10:04:01.446Z,1.40
2022-09-09T10:06:36.715Z,1.33
2022-09-09T10:09:19.935Z,1.25
2022-09-09T10:12:01.388Z,1.48
2022-09-09T10:14:39.827Z,1.50
2022-09-09T10:17:31.268Z,1.60
2022-09-09T10:22:52.953Z,1.30
2022-09-09T10:25:36.950Z,1.30
2022-09-09T10:28:12.533Z,1.45
2022-09-09T10:30:56.306Z,1.40
2022-09-09T10:33:38.245Z,1.42
2022-09-09T10:36:19.391Z,1.63
2022-09-09T10:39:02.007Z,1.30
2022-09-09T10:41:40.945Z,1.10
2022-09-09T10:44:14.202Z,1.10
2022-09-09T10:46:55.738Z,1.38
2022-09-09T10:49:56.337Z,1.25
2022-09-09T10:53:00.459Z,1.17
2022-09-09T10:55:33.726Z,1.52
2022-09-09T10:58:03.505Z,1.38
2022-09-09T11:00:46.283Z,1.40
2022-09-09T11:03:20.977Z,1.20
2022-09-09T11:05:53.510Z,1.20
2022-09-09T11:11:01.418Z,1.30
2022-09-09T11:13:40.830Z,1.40
2022-09-09T11:16:55.843Z,1.23
2022-09-09T11:19:44.864Z,1.23
2022-09-09T11:22:26.620Z,1.48
2022-09-09T11:25:01.193Z,1.50
2022-09-09T11:27:51.864Z,1.20
2022-09-09T11:30:54.993Z,1.10
2022-09-09T11:33:44.382Z,1.00
2022-09-09T11:39:31.734Z,1.10
2022-09-09T11:42:27.306Z,1.02
2022-09-09T11:44:55.746Z,1.00
2022-09-09T11:47:31.432Z,1.15
2022-09-09T11:50:16.567Z,1.20
2022-09-09T11:52:49.335Z,0.90
2022-09-09T11:55:33.969Z,1.20
2022-09-09T11:58:02.663Z,1.15
2022-09-09T12:00:42.789Z,1.30
2022-09-09T12:03:43.738Z,1.15
2022-09-09T12:06:28.144Z,1.02
2022-09-09T12:09:07.149Z,4.63
2022-09-09T12:11:33.871Z,1.10
2022-09-09T12:14:04.451Z,1.00
2022-09-09T12:16:38.283Z,1.00
2022-09-09T12:19:17.170Z,1.00
2022-09-09T12:22:04.714Z,0.93
2022-09-09T12:24:42.651Z,1.00
2022-09-09T12:27:27.156Z,1.27
2022-09-09T12:30:00.855Z,1.20
2022-09-09T12:32:29.863Z,1.00
2022-09-09T12:35:24.314Z,0.90
2022-09-09T12:37:58.979Z,0.90
2022-09-09T12:40:36.259Z,0.80
2022-09-09T12:43:20.650Z,0.90
2022-09-09T12:45:47.769Z,1.42
2022-09-09T12:48:18.362Z,0.80
2022-09-09T12:50:49.165Z,0.80
2022-09-09T12:53:32.227Z,1.00
2022-09-09T12:56:08.494Z,0.82
2022-09-09T12:58:37.801Z,0.98
2022-09-09T13:01:06.723Z,0.85
2022-09-09T13:03:43.812Z,0.82
2022-09-09T13:06:26.871Z,0.90
2022-09-09T13:08:57.736Z,0.90
2022-09-09T13:11:39.219Z,0.93
2022-09-09T13:14:06.862Z,0.70
2022-09-09T13:16:40.499Z,0.90
2022-09-09T13:19:15.318Z,0.93
2022-09-09T13:21:43.474Z,0.85
2022-09-09T13:24:29.374Z,0.70
2022-09-09T13:26:58.580Z,0.80
2022-09-09T13:29:25.531Z,0.98
2022-09-09T13:31:54.146Z,0.60
2022-09-09T13:34:30.759Z,0.77
2022-09-09T13:37:03.425Z,0.60
2022-09-09T13:39:30.480Z,0.68
2022-09-09T13:41:58.130Z,0.55
2022-09-09T13:44:28.110Z,0.88
2022-09-09T13:47:07.986Z,0.70
2022-09-09T13:49:36.733Z,0.60
2022-09-09T13:52:12.597Z,0.63
2022-09-09T13:54:39.978Z,0.70
2022-09-09T13:57:12.667Z,0.63
2022-09-09T13:59:54.335Z,0.70
2022-09-09T14:02:26.127Z,1.08
2022-09-09T14:04:56.098Z,0.70
2022-09-09T14:07:22.958Z,0.70
2022-09-09T14:09:51.000Z,0.75
2022-09-09T14:12:17.997Z,0.70
2022-09-09T14:14:44.815Z,0.80
2022-09-09T14:17:11.902Z,0.70
2022-09-09T14:19:38.534Z,0.70
2022-09-09T14:22:05.143Z,0.70
2022-09-09T14:24:31.864Z,0.70
2022-09-09T14:26:58.481Z,0.88
2022-09-09T14:29:27.592Z,0.68
2022-09-09T14:31:54.173Z,0.90
2022-09-09T14:34:20.825Z,0.80
2022-09-09T14:36:48.326Z,0.75
2022-09-09T14:39:14.979Z,0.80
2022-09-09T14:41:41.571Z,0.68
2022-09-09T14:44:09.056Z,0.68
2022-09-09T14:46:35.674Z,0.90
2022-09-09T14:49:02.305Z,0.98
2022-09-09T14:51:29.154Z,0.55
2022-09-09T14:53:58.158Z,0.75
2022-09-09T14:56:27.581Z,0.80
2022-09-09T14:58:56.231Z,0.80
2022-09-09T15:01:23.562Z,0.68
2022-09-09T15:03:56.228Z,0.65
2022-09-09T15:06:24.161Z,1.05
2022-09-09T15:08:53.060Z,1.05
2022-09-09T15:11:21.010Z,0.60
2022-09-09T15:13:48.190Z,0.60
2022-09-09T15:16:17.420Z,0.80
2022-09-09T15:18:45.897Z,0.73
2022-09-09T15:21:13.831Z,0.77
2022-09-09T15:23:40.538Z,0.60
2022-09-09T15:26:07.446Z,0.73
2022-09-09T15:28:39.136Z,0.90
2022-09-09T15:31:08.617Z,0.70
2022-09-09T15:33:39.293Z,0.70
2022-09-09T15:36:26.454Z,0.70
2022-09-09T15:38:53.911Z,0.88
2022-09-09T15:41:22.565Z,0.80
2022-09-09T15:43:57.480Z,0.80
2022-09-09T15:46:55.938Z,0.75
2022-09-09T15:49:26.942Z,0.77
2022-09-09T15:54:24.722Z,0.73
2022-09-09T15:56:55.747Z,0.90
2022-09-09T16:01:53.175Z,0.80
2022-09-09T16:04:24.205Z,0.80
2022-09-09T16:09:20.627Z,0.80
2022-09-09T16:11:47.873Z,0.80
2022-09-09T16:14:16.526Z,0.60
2022-09-09T16:16:43.403Z,0.82
2022-09-09T16:19:13.395Z,0.90
2022-09-09T16:21:45.823Z,0.60
2022-09-09T16:24:14.481Z,0.68
2022-09-09T16:26:45.607Z,0.90
2022-09-09T16:29:16.920Z,0.80
2022-09-09T16:31:44.363Z,0.73
2022-09-09T16:34:11.836Z,0.80
2022-09-09T16:36:40.250Z,0.90
2022-09-09T16:39:10.154Z,0.90
2022-09-09T16:41:37.844Z,0.80
2022-09-09T16:44:07.146Z,0.85
2022-09-09T16:46:37.496Z,1.38
2022-09-09T16:49:06.264Z,0.80
2022-09-09T16:51:36.806Z,0.85
2022-09-09T16:54:06.999Z,0.95
2022-09-09T16:56:35.176Z,0.70
2022-09-09T16:59:04.092Z,0.70
2022-09-09T17:01:33.879Z,1.10
2022-09-09T17:04:03.930Z,0.75
2022-09-09T17:06:32.329Z,0.90
2022-09-09T17:09:02.202Z,0.80
2022-09-09T17:11:30.021Z,0.80
2022-09-09T17:13:59.137Z,0.80
2022-09-09T17:16:28.870Z,1.05
2022-09-09T17:18:57.023Z,0.90
2022-09-09T17:21:26.454Z,0.90
2022-09-09T17:23:54.822Z,0.68
2022-09-09T17:26:23.670Z,0.98
2022-09-09T17:28:50.242Z,0.90
2022-09-09T17:31:19.369Z,1.35
2022-09-09T17:33:53.542Z,0.88
2022-09-09T17:36:41.370Z,1.05
2022-09-09T17:39:07.991Z,0.80
2022-09-09T17:41:39.514Z,0.90
2022-09-09T17:46:38.297Z,1.15
2022-09-09T17:49:07.794Z,0.80
2022-09-09T17:51:34.983Z,0.75
2022-09-09T17:54:11.037Z,1.10
2022-09-09T17:56:38.803Z,1.20
2022-09-09T17:59:07.720Z,0.82
2022-09-09T18:01:39.019Z,1.00
2022-09-09T18:04:08.052Z,0.88
2022-09-09T18:06:37.934Z,1.23
2022-09-09T18:09:08.101Z,0.70
2022-09-09T18:11:39.809Z,1.00
2022-09-09T18:14:06.800Z,0.80
2022-09-09T18:16:36.346Z,0.98
2022-09-09T18:19:07.026Z,0.82
2022-09-09T18:21:34.154Z,1.00
2022-09-09T18:24:05.974Z,0.95
2022-09-09T18:26:35.169Z,1.00
2022-09-09T18:29:05.755Z,1.02
2022-09-09T18:31:33.027Z,1.00
2022-09-09T18:34:03.638Z,1.00
2022-09-09T18:36:36.460Z,1.17
2022-09-09T18:39:05.782Z,1.10
2022-09-09T18:41:38.237Z,1.00
2022-09-09T18:44:16.382Z,0.90
2022-09-09T18:46:44.145Z,1.00
2022-09-09T18:49:11.567Z,0.85
2022-09-09T18:51:41.027Z,0.70
2022-09-09T18:54:16.301Z,1.00
2022-09-09T18:56:43.965Z,1.00
2022-09-09T18:59:13.946Z,0.73
2022-09-09T19:01:41.296Z,0.90
2022-09-09T19:04:08.836Z,0.90
2022-09-09T19:06:41.069Z,0.88
2022-09-09T19:09:11.206Z,1.10
2022-09-09T19:11:38.431Z,0.90
2022-09-09T19:14:07.977Z,0.82
2022-09-09T19:16:35.454Z,1.10
2022-09-09T19:19:12.325Z,1.13
2022-09-09T19:21:39.994Z,0.85
2022-09-09T19:24:21.443Z,0.90
2022-09-09T19:26:52.074Z,1.00
2022-09-09T19:29:24.170Z,1.08
2022-09-09T19:32:36.364Z,1.10
2022-09-09T19:34:40.305Z,0.93
2022-09-09T19:37:07.727Z,1.02
2022-09-09T19:39:34.613Z,1.02
2022-09-09T19:42:01.861Z,1.20
2022-09-09T19:44:28.573Z,0.88
2022-09-09T19:46:55.659Z,1.00
2022-09-09T19:49:22.494Z,0.95
2022-09-09T19:51:49.131Z,0.90
2022-09-09T19:54:15.843Z,1.00
2022-09-09T19:56:43.294Z,1.20
2022-09-09T19:59:12.331Z,1.00
2022-09-09T20:01:46.903Z,0.80
2022-09-09T20:04:15.169Z,1.00
2022-09-09T20:06:44.369Z,0.90
2022-09-09T20:09:17.298Z,1.08
2022-09-09T20:11:46.306Z,0.82
2022-09-09T20:14:13.499Z,0.93
2022-09-09T20:16:40.631Z,0.90
2022-09-09T20:19:10.990Z,1.13
2022-09-09T20:21:43.922Z,1.00
2022-09-09T20:24:15.148Z,0.80
2022-09-09T20:26:41.835Z,1.08
2022-09-09T20:29:15.982Z,1.10
2022-09-09T20:31:44.019Z,0.82
2022-09-09T20:34:13.857Z,1.30
2022-09-09T20:36:41.646Z,1.10
2022-09-09T20:39:14.978Z,0.90
2022-09-09T20:41:44.240Z,1.13
2022-09-09T20:44:14.491Z,1.00
2022-09-09T20:46:44.250Z,1.00
2022-09-09T20:49:11.685Z,1.00
2022-09-09T20:51:39.051Z,0.70
2022-09-09T20:54:08.597Z,1.48
2022-09-09T20:56:39.262Z,0.85
2022-09-09T20:59:07.684Z,1.10
2022-09-09T21:01:34.309Z,1.00
2022-09-09T21:04:01.644Z,0.80
2022-09-09T21:06:28.230Z,0.88
2022-09-09T21:08:54.790Z,1.00
2022-09-09T21:11:22.001Z,0.90
2022-09-09T21:13:48.946Z,0.80
2022-09-09T21:16:21.084Z,0.90
2022-09-09T21:18:50.662Z,0.90
2022-09-09T21:21:21.698Z,1.00
2022-09-09T21:23:49.405Z,0.73
2022-09-09T21:26:18.133Z,0.60
2022-09-09T21:28:45.082Z,3.03
2022-09-09T21:31:16.582Z,1.10
2022-09-09T21:33:43.462Z,3.35
2022-09-09T21:36:11.968Z,0.70
2022-09-09T21:38:42.568Z,2.60
2022-09-09T21:41:15.718Z,1.08
2022-09-09T21:43:44.159Z,0.80
2022-09-09T21:46:16.462Z,1.25
2022-09-09T21:48:43.874Z,0.70
2022-09-09T21:51:14.003Z,0.60
2022-09-09T21:53:40.685Z,0.80
2022-09-09T21:56:10.687Z,2.65
2022-09-09T21:58:38.123Z,0.85
2022-09-09T22:01:14.564Z,0.77
2022-09-09T22:03:42.559Z,0.70
2022-09-09T22:06:11.848Z,0.80
2022-09-09T22:08:38.617Z,0.70
2022-09-09T22:11:12.272Z,0.50
2022-09-09T22:13:38.961Z,0.60
2022-09-09T22:16:08.472Z,0.65
2022-09-09T22:18:35.632Z,0.40
2022-09-09T22:21:15.074Z,0.50
2022-09-09T22:23:41.722Z,0.40
2022-09-09T22:26:09.029Z,0.60
2022-09-09T22:28:36.368Z,0.40
2022-09-09T22:31:03.525Z,0.30
2022-09-09T22:33:30.329Z,0.40
2022-09-09T22:35:57.020Z,0.32
2022-09-09T22:38:23.587Z,0.35
2022-09-09T22:40:50.349Z,0.60
2022-09-09T22:43:19.486Z,0.65
2022-09-09T22:45:46.728Z,0.60
2022-09-09T22:48:14.872Z,0.70
2022-09-09T22:50:42.668Z,0.50
2022-09-09T22:53:13.739Z,0.50
2022-09-09T22:55:40.778Z,0.50
2022-09-09T22:58:07.626Z,0.38
2022-09-09T23:00:34.552Z,0.43
2022-09-09T23:03:01.446Z,0.50
2022-09-09T23:05:28.125Z,0.60
2022-09-09T23:07:58.399Z,0.45
2022-09-09T23:10:25.412Z,0.50
2022-09-09T23:12:52.336Z,0.52
2022-09-09T23:15:19.790Z,0.85
2022-09-09T23:17:46.506Z,0.40
2022-09-09T23:20:13.750Z,0.40
2022-09-09T23:22:40.417Z,0.70
2022-09-09T23:25:07.811Z,0.50
2022-09-09T23:27:34.722Z,0.60
2022-09-09T23:30:01.481Z,0.65
2022-09-09T23:32:28.180Z,0.55
2022-09-09T23:34:54.753Z,0.60
2022-09-09T23:37:21.611Z,0.30
2022-09-09T23:39:48.483Z,0.40
2022-09-09T23:42:15.330Z,0.50
2022-09-09T23:44:42.074Z,0.55
2022-09-09T23:47:09.301Z,0.50
2022-09-09T23:49:39.689Z,0.50
2022-09-09T23:52:06.621Z,0.40
2022-09-09T23:54:34.774Z,0.63
2022-09-09T23:57:03.157Z,0.40
2022-09-09T23:59:31.211Z,0.40
